createdAt,value
2019-02-06T00:02:01.924Z,88.88
2019-02-06T00:04:30.714Z,89.08
2019-02-06T00:06:59.497Z,88.56
2019-02-06T00:09:28.283Z,88.49
2019-02-06T00:11:57.098Z,88.40
2019-02-06T00:14:26.127Z,88.53
2019-02-06T00:16:54.851Z,88.34
2019-02-06T00:19:23.710Z,88.19
2019-02-06T00:21:52.530Z,87.95
2019-02-06T00:24:22.008Z,88.11
2019-02-06T00:26:50.888Z,88.30
2019-02-06T00:29:19.676Z,88.50
2019-02-06T00:31:48.463Z,88.46
2019-02-06T00:34:17.407Z,88.11
2019-02-06T00:36:46.297Z,88.08
2019-02-06T00:39:15.201Z,87.70
2019-02-06T00:41:44.027Z,87.66
2019-02-06T00:44:12.864Z,87.77
2019-02-06T00:46:41.732Z,88.19
2019-02-06T00:49:10.548Z,87.48
2019-02-06T00:51:39.383Z,88.28
2019-02-06T00:54:08.204Z,88.07
2019-02-06T00:56:36.997Z,87.24
2019-02-06T00:59:05.903Z,87.83
2019-02-06T01:01:34.715Z,87.10
2019-02-06T01:04:03.527Z,87.29
2019-02-06T01:06:32.313Z,87.24
2019-02-06T01:09:01.199Z,87.41
2019-02-06T01:11:30.032Z,86.87
2019-02-06T01:13:58.859Z,86.72
2019-02-06T01:16:27.771Z,86.87
2019-02-06T01:18:56.618Z,86.51
2019-02-06T01:21:25.470Z,86.80
2019-02-06T01:23:54.308Z,86.73
2019-02-06T01:26:23.105Z,86.19
2019-02-06T01:28:51.924Z,86.43
2019-02-06T01:31:23.508Z,86.36
2019-02-06T01:33:52.299Z,86.16
2019-02-06T01:36:21.069Z,85.85
2019-02-06T01:38:49.963Z,86.32
2019-02-06T01:41:18.754Z,86.30
2019-02-06T01:43:47.549Z,85.80
2019-02-06T01:46:16.376Z,86.23
2019-02-06T01:48:45.203Z,85.20
2019-02-06T01:51:13.992Z,85.74
2019-02-06T01:53:42.819Z,85.97
2019-02-06T01:56:11.630Z,85.06
2019-02-06T01:58:40.464Z,85.81
2019-02-06T02:01:09.256Z,85.67
2019-02-06T02:03:38.069Z,85.56
2019-02-06T02:06:06.881Z,84.80
2019-02-06T02:08:37.065Z,85.26
2019-02-06T02:11:06.196Z,85.36
2019-02-06T02:13:35.145Z,85.46
2019-02-06T02:16:03.938Z,84.51
2019-02-06T02:18:32.751Z,85.30
2019-02-06T02:21:01.587Z,84.98
2019-02-06T02:23:30.431Z,85.02
2019-02-06T02:25:59.211Z,84.50
2019-02-06T02:28:27.999Z,84.50
2019-02-06T02:30:56.917Z,84.44
2019-02-06T02:33:25.727Z,83.85
2019-02-06T02:35:54.525Z,84.04
2019-02-06T02:38:23.324Z,83.81
2019-02-06T02:40:52.092Z,83.71
2019-02-06T02:43:20.886Z,84.28
2019-02-06T02:45:49.716Z,84.45
2019-02-06T02:48:18.502Z,83.74
2019-02-06T02:50:47.423Z,83.61
2019-02-06T02:53:16.232Z,83.47
2019-02-06T02:55:44.999Z,83.92
2019-02-06T02:58:13.885Z,83.72
2019-02-06T03:00:46.892Z,83.63
2019-02-06T03:03:20.877Z,84.10
2019-02-06T03:05:49.700Z,83.60
2019-02-06T03:08:18.624Z,83.08
2019-02-06T03:10:47.410Z,83.72
2019-02-06T03:13:16.210Z,83.43
2019-02-06T03:15:45.044Z,82.53
2019-02-06T03:18:13.916Z,82.82
2019-02-06T03:20:45.059Z,82.83
2019-02-06T03:23:14.895Z,82.88
2019-02-06T03:25:43.644Z,83.18
2019-02-06T03:28:12.463Z,82.88
2019-02-06T03:30:41.292Z,82.46
2019-02-06T03:33:10.117Z,82.54
2019-02-06T03:35:38.919Z,83.04
2019-02-06T03:38:07.785Z,82.77
2019-02-06T03:40:36.559Z,82.87
2019-02-06T03:43:05.346Z,82.65
2019-02-06T03:45:34.194Z,82.54
2019-02-06T03:48:03.158Z,82.01
2019-02-06T03:50:31.979Z,82.46
2019-02-06T03:53:00.799Z,82.07
2019-02-06T03:55:29.678Z,82.15
2019-02-06T03:57:58.464Z,81.79
2019-02-06T04:00:27.249Z,81.81
2019-02-06T04:02:56.030Z,82.55
2019-02-06T04:05:24.941Z,82.38
2019-02-06T04:07:53.779Z,81.43
2019-02-06T04:10:22.595Z,81.57
2019-02-06T04:12:51.389Z,81.97
2019-02-06T04:15:20.155Z,81.49
2019-02-06T04:17:49.043Z,81.46
2019-02-06T04:20:17.894Z,82.22
2019-02-06T04:22:46.669Z,81.74
2019-02-06T04:25:15.468Z,81.70
2019-02-06T04:27:44.267Z,81.39
2019-02-06T04:30:13.257Z,81.55
2019-02-06T04:32:42.214Z,81.66
2019-02-06T04:35:11.569Z,81.55
2019-02-06T04:37:40.388Z,81.26
2019-02-06T04:40:12.218Z,81.46
2019-02-06T04:42:41.030Z,81.19
2019-02-06T04:45:10.270Z,81.72
2019-02-06T04:47:38.892Z,81.74
2019-02-06T04:50:08.395Z,81.47
2019-02-06T04:52:37.291Z,81.31
2019-02-06T04:55:06.713Z,81.46
2019-02-06T04:57:35.528Z,81.07
2019-02-06T05:00:07.850Z,81.54
2019-02-06T05:02:36.699Z,81.46
2019-02-06T05:05:05.822Z,80.92
2019-02-06T05:07:34.661Z,81.46
2019-02-06T05:10:03.460Z,81.28
2019-02-06T05:12:32.337Z,81.04
2019-02-06T05:15:01.110Z,81.19
2019-02-06T05:17:29.891Z,80.92
2019-02-06T05:19:58.695Z,80.96
2019-02-06T05:22:27.467Z,80.97
2019-02-06T05:24:56.286Z,80.92
2019-02-06T05:27:25.131Z,80.67
2019-02-06T05:29:53.914Z,80.79
2019-02-06T05:32:22.714Z,81.10
2019-02-06T05:34:51.571Z,80.72
2019-02-06T05:37:31.816Z,80.20
2019-02-06T05:39:49.210Z,80.99
2019-02-06T05:42:17.987Z,80.61
2019-02-06T05:44:47.621Z,80.40
2019-02-06T05:47:16.339Z,80.16
2019-02-06T05:49:45.165Z,80.16
2019-02-06T05:52:14.694Z,80.05
2019-02-06T05:54:43.477Z,80.43
2019-02-06T05:57:12.436Z,80.39
2019-02-06T05:59:41.214Z,79.79
2019-02-06T06:02:09.983Z,79.84
2019-02-06T06:04:38.770Z,79.71
2019-02-06T06:07:14.163Z,79.73
2019-02-06T06:09:43.059Z,79.65
2019-02-06T06:12:11.942Z,80.41
2019-02-06T06:14:40.741Z,79.79
2019-02-06T06:17:09.605Z,79.46
2019-02-06T06:19:38.387Z,79.90
2019-02-06T06:22:07.195Z,79.89
2019-02-06T06:24:36.000Z,79.91
2019-02-06T06:27:04.803Z,80.03
2019-02-06T06:29:33.643Z,79.64
2019-02-06T06:32:02.523Z,80.00
2019-02-06T06:34:31.401Z,80.01
2019-02-06T06:37:00.233Z,79.53
2019-02-06T06:39:29.017Z,79.80
2019-02-06T06:41:57.802Z,79.67
2019-02-06T06:44:26.570Z,79.70
2019-02-06T06:46:55.477Z,79.96
2019-02-06T06:49:24.309Z,79.48
2019-02-06T06:51:53.093Z,80.04
2019-02-06T06:54:21.917Z,79.68
2019-02-06T06:56:50.702Z,79.25
2019-02-06T06:59:19.569Z,79.87
2019-02-06T07:01:48.348Z,79.58
2019-02-06T07:04:17.142Z,79.97
2019-02-06T07:06:46.542Z,80.01
2019-02-06T07:09:14.761Z,79.20
2019-02-06T07:11:43.548Z,79.64
2019-02-06T07:14:12.383Z,78.79
2019-02-06T07:16:41.213Z,79.42
2019-02-06T07:19:09.971Z,78.58
2019-02-06T07:21:38.792Z,78.74
2019-02-06T07:24:07.648Z,78.95
2019-02-06T07:26:36.426Z,78.81
2019-02-06T07:29:05.239Z,78.83
2019-02-06T07:31:34.024Z,78.74
2019-02-06T07:34:02.841Z,78.97
2019-02-06T07:36:31.644Z,79.18
2019-02-06T07:39:00.430Z,78.80
2019-02-06T07:41:29.225Z,78.72
2019-02-06T07:43:58.068Z,78.73
2019-02-06T07:46:26.903Z,79.04
2019-02-06T07:48:55.792Z,78.40
2019-02-06T07:51:24.664Z,78.37
2019-02-06T07:53:53.606Z,78.27
2019-02-06T07:56:22.486Z,78.48
2019-02-06T07:58:51.270Z,78.36
2019-02-06T08:01:20.073Z,78.45
2019-02-06T08:03:48.892Z,78.27
2019-02-06T08:06:17.677Z,78.49
2019-02-06T08:08:46.499Z,78.89
2019-02-06T08:11:15.361Z,78.99
2019-02-06T08:13:44.086Z,78.65
2019-02-06T08:16:12.905Z,79.23
2019-02-06T08:18:41.700Z,79.54
2019-02-06T08:21:10.543Z,79.76
2019-02-06T08:23:39.339Z,79.98
2019-02-06T08:26:08.171Z,80.10
2019-02-06T08:28:37.002Z,80.49
2019-02-06T08:31:05.889Z,80.49
2019-02-06T08:33:34.672Z,80.59
2019-02-06T08:36:03.453Z,80.77
2019-02-06T08:38:32.259Z,80.76
2019-02-06T08:41:01.041Z,80.92
2019-02-06T08:43:29.880Z,81.21
2019-02-06T08:45:58.669Z,81.21
2019-02-06T08:48:27.503Z,81.60
2019-02-06T08:50:56.291Z,81.92
2019-02-06T08:53:25.069Z,81.78
2019-02-06T08:55:54.003Z,81.76
2019-02-06T08:58:22.810Z,81.80
2019-02-06T09:00:51.703Z,82.18
2019-02-06T09:03:20.512Z,83.12
2019-02-06T09:05:49.358Z,82.83
2019-02-06T09:08:18.203Z,82.94
2019-02-06T09:10:47.041Z,83.71
2019-02-06T09:13:15.873Z,83.78
2019-02-06T09:15:44.644Z,84.18
2019-02-06T09:18:13.424Z,84.32
2019-02-06T09:20:42.816Z,84.97
2019-02-06T09:23:11.620Z,85.00
2019-02-06T09:25:40.515Z,85.39
2019-02-06T09:28:12.379Z,85.28
2019-02-06T09:30:41.157Z,85.59
2019-02-06T09:33:10.102Z,85.59
2019-02-06T09:35:38.943Z,85.58
2019-02-06T09:38:07.702Z,85.62
2019-02-06T09:40:36.565Z,86.24
2019-02-06T09:43:05.355Z,86.29
2019-02-06T09:45:34.181Z,86.24
2019-02-06T09:48:02.950Z,86.04
2019-02-06T09:50:33.718Z,86.62
2019-02-06T09:53:03.094Z,86.23
2019-02-06T09:55:31.908Z,86.84
2019-02-06T09:58:00.687Z,86.61
2019-02-06T10:00:34.092Z,86.50
2019-02-06T10:03:02.886Z,86.53
2019-02-06T10:05:32.282Z,87.11
2019-02-06T10:08:01.106Z,86.67
2019-02-06T10:10:29.908Z,86.75
2019-02-06T10:12:58.776Z,86.06
2019-02-06T10:15:29.629Z,87.08
2019-02-06T10:17:59.215Z,86.80
2019-02-06T10:20:31.556Z,86.87
2019-02-06T10:23:00.351Z,86.87
2019-02-06T10:25:29.131Z,86.48
2019-02-06T10:27:57.923Z,86.63
2019-02-06T10:30:29.267Z,87.19
2019-02-06T10:32:58.055Z,86.63
2019-02-06T10:35:26.843Z,87.04
2019-02-06T10:37:55.715Z,87.06
2019-02-06T10:40:24.544Z,86.95
2019-02-06T10:42:53.455Z,86.91
2019-02-06T10:45:22.183Z,86.68
2019-02-06T10:47:51.223Z,86.58
2019-02-06T10:50:22.008Z,86.68
2019-02-06T10:52:50.795Z,86.41
2019-02-06T10:55:19.635Z,86.14
2019-02-06T10:57:48.461Z,85.95
2019-02-06T11:00:22.072Z,86.38
2019-02-06T11:02:50.919Z,86.48
2019-02-06T11:05:19.695Z,86.30
2019-02-06T11:07:48.503Z,86.67
2019-02-06T11:10:17.342Z,86.47
2019-02-06T11:12:46.194Z,85.97
2019-02-06T11:15:15.037Z,86.75
2019-02-06T11:17:43.863Z,86.55
2019-02-06T11:20:15.284Z,86.78
2019-02-06T11:22:44.175Z,86.66
2019-02-06T11:25:13.367Z,86.89
2019-02-06T11:27:42.235Z,87.02
2019-02-06T11:30:16.159Z,86.89
2019-02-06T11:32:44.975Z,86.79
2019-02-06T11:35:14.150Z,87.20
2019-02-06T11:37:42.930Z,86.59
2019-02-06T11:40:15.316Z,86.70
2019-02-06T11:42:42.892Z,87.48
2019-02-06T11:45:13.274Z,87.28
2019-02-06T11:47:42.091Z,86.62
2019-02-06T11:50:12.814Z,87.24
2019-02-06T11:52:41.614Z,87.39
2019-02-06T11:55:13.288Z,86.45
2019-02-06T11:57:42.204Z,86.94
2019-02-06T12:00:13.696Z,86.84
2019-02-06T12:02:42.524Z,86.42
2019-02-06T12:05:11.311Z,86.75
2019-02-06T12:07:40.124Z,86.70
2019-02-06T12:10:11.707Z,86.70
2019-02-06T12:12:40.575Z,87.14
2019-02-06T12:15:13.183Z,87.06
2019-02-06T12:17:42.018Z,86.67
2019-02-06T12:20:13.814Z,86.71
2019-02-06T12:22:42.690Z,86.69
2019-02-06T12:25:12.000Z,86.40
2019-02-06T12:27:40.802Z,86.33
2019-02-06T12:30:14.772Z,86.29
2019-02-06T12:32:51.978Z,86.35
2019-02-06T12:35:12.380Z,86.33
2019-02-06T12:37:41.191Z,86.56
2019-02-06T12:40:20.751Z,86.29
2019-02-06T12:42:38.902Z,86.18
2019-02-06T12:45:07.740Z,86.29
2019-02-06T12:47:36.577Z,86.24
2019-02-06T12:50:06.127Z,86.20
2019-02-06T12:52:34.894Z,86.35
2019-02-06T12:55:04.051Z,86.47
2019-02-06T12:57:37.054Z,86.56
2019-02-06T13:00:01.660Z,86.99
2019-02-06T13:02:30.547Z,86.74
2019-02-06T13:04:59.397Z,86.25
2019-02-06T13:07:28.241Z,86.54
2019-02-06T13:09:57.099Z,86.68
2019-02-06T13:12:27.374Z,86.28
2019-02-06T13:14:54.794Z,86.66
2019-02-06T13:17:23.703Z,86.87
2019-02-06T13:19:52.711Z,86.68
2019-02-06T13:22:21.524Z,86.46
2019-02-06T13:24:50.310Z,86.05
2019-02-06T13:27:19.232Z,86.49
2019-02-06T13:29:48.058Z,86.35
2019-02-06T13:32:16.930Z,86.61
2019-02-06T13:34:45.748Z,86.92
2019-02-06T13:37:14.543Z,86.76
2019-02-06T13:39:43.338Z,86.12
2019-02-06T13:42:12.137Z,86.24
2019-02-06T13:44:41.632Z,86.54
2019-02-06T13:47:09.766Z,86.45
2019-02-06T13:49:38.543Z,86.16
2019-02-06T13:52:07.383Z,86.68
2019-02-06T13:54:36.245Z,86.41
2019-02-06T13:57:05.079Z,86.46
2019-02-06T13:59:33.944Z,86.84
2019-02-06T14:02:03.451Z,86.99
2019-02-06T14:04:32.310Z,86.94
2019-02-06T14:07:01.142Z,86.66
2019-02-06T14:09:29.930Z,86.86
2019-02-06T14:11:58.720Z,86.89
2019-02-06T14:14:27.537Z,86.88
2019-02-06T14:16:56.354Z,86.69
2019-02-06T14:19:25.141Z,87.16
2019-02-06T14:21:54.063Z,86.92
2019-02-06T14:24:31.431Z,87.07
2019-02-06T14:29:17.147Z,87.06
2019-02-06T14:32:33.419Z,87.49
2019-02-06T14:37:21.691Z,87.27
2019-02-06T14:40:00.935Z,87.67
2019-02-06T14:42:40.475Z,87.80
2019-02-06T14:45:43.727Z,88.12
2019-02-06T14:48:22.669Z,88.26
2019-02-06T14:51:01.291Z,87.99
2019-02-06T14:53:43.810Z,88.55
2019-02-06T14:56:25.070Z,88.10
2019-02-06T14:59:07.005Z,88.49
2019-02-06T15:01:51.222Z,88.58
2019-02-06T15:04:40.371Z,88.49
2019-02-06T15:07:48.666Z,88.12
2019-02-06T15:10:28.328Z,88.25
2019-02-06T15:13:05.238Z,88.50
2019-02-06T15:15:43.659Z,88.44
2019-02-06T15:18:33.771Z,88.67
2019-02-06T15:22:14.751Z,88.25
2019-02-06T15:24:53.674Z,88.61
2019-02-06T15:29:38.467Z,88.59
2019-02-06T15:32:33.645Z,88.62
2019-02-06T15:35:15.499Z,88.79
2019-02-06T15:38:03.531Z,88.53
2019-02-06T15:40:41.608Z,88.98
2019-02-06T15:43:21.781Z,89.26
2019-02-06T15:47:01.746Z,89.01
2019-02-06T15:49:40.845Z,89.01
2019-02-06T15:52:19.556Z,88.81
2019-02-06T15:55:02.315Z,89.13
2019-02-06T15:57:45.134Z,89.48
2019-02-06T16:01:32.978Z,89.60
2019-02-06T16:04:27.158Z,89.54
2019-02-06T16:07:10.224Z,89.70
2019-02-06T16:09:49.991Z,89.64
2019-02-06T16:12:29.335Z,90.32
2019-02-06T16:15:06.996Z,89.73
2019-02-06T16:19:49.186Z,89.80
2019-02-06T16:22:41.035Z,89.46
2019-02-06T16:25:20.554Z,90.16
2019-02-06T16:28:01.328Z,90.08
2019-02-06T16:30:40.763Z,90.38
2019-02-06T16:33:18.663Z,90.62
2019-02-06T16:36:22.084Z,90.02
2019-02-06T16:39:02.709Z,90.56
2019-02-06T16:42:06.833Z,90.54
2019-02-06T16:44:50.468Z,91.12
2019-02-06T16:47:44.779Z,91.26
2019-02-06T16:50:20.600Z,91.22
2019-02-06T16:53:00.764Z,90.74
2019-02-06T16:57:44.420Z,91.17
2019-02-06T17:00:30.352Z,90.88
2019-02-06T17:03:11.856Z,90.28
2019-02-06T17:05:51.938Z,90.84
2019-02-06T17:08:38.591Z,90.80
2019-02-06T17:11:20.527Z,90.84
2019-02-06T17:16:19.751Z,91.41
2019-02-06T17:18:57.652Z,90.97
2019-02-06T17:22:38.868Z,90.91
2019-02-06T17:27:22.690Z,91.33
2019-02-06T17:30:02.567Z,91.30
2019-02-06T17:32:47.883Z,91.24
2019-02-06T17:36:02.551Z,91.31
2019-02-06T17:38:41.332Z,91.59
2019-02-06T17:43:34.247Z,91.60
2019-02-06T17:46:15.188Z,91.25
2019-02-06T17:48:58.732Z,91.81
2019-02-06T17:51:49.622Z,91.66
2019-02-06T17:54:34.311Z,91.95
2019-02-06T17:57:03.212Z,91.43
2019-02-06T17:59:32.008Z,91.64
2019-02-06T18:02:00.801Z,91.52
2019-02-06T18:04:37.405Z,91.96
2019-02-06T18:07:06.451Z,92.12
2019-02-06T18:09:35.262Z,91.84
2019-02-06T18:12:04.092Z,91.58
2019-02-06T18:14:32.965Z,91.83
2019-02-06T18:17:03.366Z,91.66
2019-02-06T18:19:37.386Z,92.00
2019-02-06T18:22:07.124Z,91.98
2019-02-06T18:24:35.950Z,91.83
2019-02-06T18:27:05.617Z,91.92
2019-02-06T18:29:34.515Z,91.71
2019-02-06T18:32:03.307Z,91.88
2019-02-06T18:34:32.107Z,91.92
2019-02-06T18:37:00.903Z,91.51
2019-02-06T18:39:29.735Z,91.67
2019-02-06T18:41:58.577Z,91.56
2019-02-06T18:44:27.415Z,91.97
2019-02-06T18:46:56.358Z,91.44
2019-02-06T18:49:25.268Z,91.86
2019-02-06T18:51:54.068Z,91.50
2019-02-06T18:54:22.963Z,91.46
2019-02-06T18:56:51.811Z,91.73
2019-02-06T18:59:20.612Z,91.83
2019-02-06T19:01:49.452Z,91.62
2019-02-06T19:04:20.132Z,91.69
2019-02-06T19:06:48.925Z,91.80
2019-02-06T19:09:18.764Z,91.61
2019-02-06T19:11:47.571Z,91.66
2019-02-06T19:14:16.419Z,91.63
2019-02-06T19:16:45.287Z,91.62
2019-02-06T19:19:24.822Z,91.52
2019-02-06T19:21:42.993Z,91.63
2019-02-06T19:24:11.818Z,92.00
2019-02-06T19:26:40.612Z,91.49
2019-02-06T19:29:09.402Z,91.62
2019-02-06T19:31:38.209Z,91.67
2019-02-06T19:34:07.055Z,91.80
2019-02-06T19:36:35.844Z,91.98
2019-02-06T19:39:08.234Z,91.79
2019-02-06T19:41:37.113Z,91.45
2019-02-06T19:44:05.943Z,91.71
2019-02-06T19:46:34.723Z,91.54
2019-02-06T19:49:03.524Z,92.00
2019-02-06T19:51:32.399Z,91.80
2019-02-06T19:54:01.171Z,91.58
2019-02-06T19:56:29.964Z,92.25
2019-02-06T19:58:58.847Z,91.97
2019-02-06T20:01:27.653Z,91.87
2019-02-06T20:03:56.439Z,92.05
2019-02-06T20:06:30.038Z,92.39
2019-02-06T20:09:01.889Z,91.78
2019-02-06T20:11:30.676Z,92.13
2019-02-06T20:13:59.469Z,92.20
2019-02-06T20:16:28.263Z,91.91
2019-02-06T20:18:57.051Z,92.43
2019-02-06T20:21:25.826Z,91.81
2019-02-06T20:23:54.719Z,92.21
2019-02-06T20:26:23.503Z,92.02
2019-02-06T20:28:52.316Z,92.06
2019-02-06T20:31:21.131Z,92.35
2019-02-06T20:33:49.910Z,92.57
2019-02-06T20:36:18.712Z,92.75
2019-02-06T20:38:47.598Z,92.64
2019-02-06T20:41:16.414Z,92.65
2019-02-06T20:43:45.264Z,92.37
2019-02-06T20:46:14.065Z,92.37
2019-02-06T20:48:42.923Z,92.75
2019-02-06T20:51:11.727Z,92.87
2019-02-06T20:53:40.548Z,92.89
2019-02-06T20:56:09.495Z,92.96
2019-02-06T20:58:38.287Z,93.12
2019-02-06T21:01:07.123Z,92.77
2019-02-06T21:03:35.912Z,92.81
2019-02-06T21:06:04.770Z,93.20
2019-02-06T21:08:33.606Z,92.73
2019-02-06T21:11:02.515Z,93.31
2019-02-06T21:13:33.107Z,92.94
2019-02-06T21:16:00.261Z,93.03
2019-02-06T21:18:29.139Z,93.00
2019-02-06T21:20:57.950Z,92.91
2019-02-06T21:23:26.748Z,92.87
2019-02-06T21:25:55.652Z,93.08
2019-02-06T21:28:24.450Z,92.93
2019-02-06T21:30:53.248Z,93.08
2019-02-06T21:33:22.084Z,93.18
2019-02-06T21:35:50.880Z,93.41
2019-02-06T21:38:19.663Z,93.26
2019-02-06T21:40:48.498Z,92.95
2019-02-06T21:43:17.358Z,93.43
2019-02-06T21:45:46.145Z,93.50
2019-02-06T21:48:14.987Z,93.10
2019-02-06T21:50:43.799Z,93.26
2019-02-06T21:53:12.595Z,93.17
2019-02-06T21:55:41.410Z,93.44
2019-02-06T21:58:10.252Z,93.57
2019-02-06T22:00:40.738Z,93.23
2019-02-06T22:03:10.760Z,93.42
2019-02-06T22:05:38.345Z,93.08
2019-02-06T22:08:13.914Z,93.14
2019-02-06T22:10:42.715Z,93.84
2019-02-06T22:13:11.538Z,93.62
2019-02-06T22:15:40.346Z,93.43
2019-02-06T22:18:09.203Z,93.33
2019-02-06T22:20:38.044Z,93.87
2019-02-06T22:23:06.875Z,93.53
2019-02-06T22:25:35.764Z,93.28
2019-02-06T22:28:04.655Z,93.43
2019-02-06T22:30:33.526Z,93.24
2019-02-06T22:33:02.259Z,93.46
2019-02-06T22:35:31.078Z,93.31
2019-02-06T22:37:59.871Z,93.20
2019-02-06T22:40:28.707Z,93.45
2019-02-06T22:42:57.544Z,93.16
2019-02-06T22:45:27.080Z,93.18
2019-02-06T22:47:55.869Z,93.04
2019-02-06T22:50:25.901Z,93.20
2019-02-06T22:52:54.719Z,92.87
2019-02-06T22:55:23.517Z,92.78
2019-02-06T22:57:52.372Z,92.72
2019-02-06T23:00:35.671Z,93.33
2019-02-06T23:03:04.462Z,92.90
2019-02-06T23:05:34.223Z,93.22
2019-02-06T23:08:03.115Z,92.64
2019-02-06T23:10:31.883Z,93.16
2019-02-06T23:13:00.676Z,93.32
2019-02-06T23:15:29.519Z,93.17
2019-02-06T23:17:58.306Z,92.95
2019-02-06T23:20:27.161Z,93.34
2019-02-06T23:22:56.124Z,93.29
2019-02-06T23:25:24.979Z,93.20
2019-02-06T23:27:53.798Z,93.60
2019-02-06T23:30:22.603Z,93.16
2019-02-06T23:32:52.225Z,93.13
2019-02-06T23:35:21.070Z,93.83
2019-02-06T23:37:49.872Z,93.56
2019-02-06T23:40:19.326Z,93.45
2019-02-06T23:42:48.112Z,93.20
2019-02-06T23:45:16.898Z,93.47
2019-02-06T23:47:46.274Z,93.40
2019-02-06T23:50:15.071Z,93.37
2019-02-06T23:52:43.847Z,93.47
2019-02-06T23:55:12.633Z,93.35
2019-02-06T23:57:41.451Z,93.24
